sensor_id;sensor_type;location;lat;lon;timestamp;P1;durP1;ratioP1;P2;durP2;ratioP2
51602;SDS011;37954;51.980;5.850;2022-10-26T00:03:34;10.68;;;6.15;;
51602;SDS011;37954;51.980;5.850;2022-10-26T00:07:48;8.23;;;6.25;;
51602;SDS011;37954;51.980;5.850;2022-10-26T00:12:00;8.93;;;6.38;;
51602;SDS011;37954;51.980;5.850;2022-10-26T00:16:13;7.35;;;6.07;;
51602;SDS011;37954;51.980;5.850;2022-10-26T00:20:31;9.88;;;6.18;;
51602;SDS011;37954;51.980;5.850;2022-10-26T00:24:42;8.75;;;6.80;;
51602;SDS011;37954;51.980;5.850;2022-10-26T00:28:54;12.20;;;7.32;;
51602;SDS011;37954;51.980;5.850;2022-10-26T00:33:09;13.10;;;7.20;;
51602;SDS011;37954;51.980;5.850;2022-10-26T00:37:23;11.60;;;6.88;;
51602;SDS011;37954;51.980;5.850;2022-10-26T00:41:36;7.70;;;6.55;;
51602;SDS011;37954;51.980;5.850;2022-10-26T00:45:48;6.90;;;6.18;;
51602;SDS011;37954;51.980;5.850;2022-10-26T00:50:17;12.15;;;7.28;;
51602;SDS011;37954;51.980;5.850;2022-10-26T00:54:35;10.52;;;6.85;;
51602;SDS011;37954;51.980;5.850;2022-10-26T00:58:46;10.30;;;6.40;;
51602;SDS011;37954;51.980;5.850;2022-10-26T01:02:59;7.78;;;6.28;;
51602;SDS011;37954;51.980;5.850;2022-10-26T01:07:14;10.88;;;6.35;;
51602;SDS011;37954;51.980;5.850;2022-10-26T01:11:26;8.97;;;7.10;;
51602;SDS011;37954;51.980;5.850;2022-10-26T01:15:47;7.40;;;6.27;;
51602;SDS011;37954;51.980;5.850;2022-10-26T01:20:13;8.32;;;6.72;;
51602;SDS011;37954;51.980;5.850;2022-10-26T01:38:53;6.53;;;5.63;;
51602;SDS011;37954;51.980;5.850;2022-10-26T01:43:11;7.07;;;5.65;;
51602;SDS011;37954;51.980;5.850;2022-10-26T01:47:25;8.67;;;6.60;;
51602;SDS011;37954;51.980;5.850;2022-10-26T01:51:39;9.45;;;5.60;;
51602;SDS011;37954;51.980;5.850;2022-10-26T01:55:53;9.30;;;6.13;;
51602;SDS011;37954;51.980;5.850;2022-10-26T02:00:07;5.68;;;4.95;;
51602;SDS011;37954;51.980;5.850;2022-10-26T02:08:55;5.88;;;5.28;;
51602;SDS011;37954;51.980;5.850;2022-10-26T02:13:24;6.60;;;5.35;;
51602;SDS011;37954;51.980;5.850;2022-10-26T02:18:12;6.32;;;4.97;;
51602;SDS011;37954;51.980;5.850;2022-10-26T02:22:39;7.28;;;5.53;;
51602;SDS011;37954;51.980;5.850;2022-10-26T02:26:55;6.70;;;5.10;;
51602;SDS011;37954;51.980;5.850;2022-10-26T02:31:10;6.53;;;5.33;;
51602;SDS011;37954;51.980;5.850;2022-10-26T02:35:28;8.03;;;5.93;;
51602;SDS011;37954;51.980;5.850;2022-10-26T02:39:41;6.38;;;5.60;;
51602;SDS011;37954;51.980;5.850;2022-10-26T02:44:04;7.15;;;5.57;;
51602;SDS011;37954;51.980;5.850;2022-10-26T02:48:25;8.48;;;5.65;;
51602;SDS011;37954;51.980;5.850;2022-10-26T02:56:55;8.35;;;6.10;;
51602;SDS011;37954;51.980;5.850;2022-10-26T03:01:11;7.57;;;5.72;;
51602;SDS011;37954;51.980;5.850;2022-10-26T03:05:24;7.25;;;5.35;;
51602;SDS011;37954;51.980;5.850;2022-10-26T03:09:37;8.23;;;6.03;;
51602;SDS011;37954;51.980;5.850;2022-10-26T03:13:49;8.52;;;6.57;;
51602;SDS011;37954;51.980;5.850;2022-10-26T03:18:00;9.27;;;5.82;;
51602;SDS011;37954;51.980;5.850;2022-10-26T03:22:12;11.18;;;5.72;;
51602;SDS011;37954;51.980;5.850;2022-10-26T03:26:24;8.63;;;5.40;;
51602;SDS011;37954;51.980;5.850;2022-10-26T03:30:35;8.75;;;5.20;;
51602;SDS011;37954;51.980;5.850;2022-10-26T03:34:47;9.70;;;5.57;;
51602;SDS011;37954;51.980;5.850;2022-10-26T03:38:58;7.45;;;5.13;;
51602;SDS011;37954;51.980;5.850;2022-10-26T03:43:10;16.33;;;6.15;;
51602;SDS011;37954;51.980;5.850;2022-10-26T03:47:21;8.68;;;5.55;;
51602;SDS011;37954;51.980;5.850;2022-10-26T03:51:33;7.25;;;5.30;;
51602;SDS011;37954;51.980;5.850;2022-10-26T03:55:44;6.88;;;5.18;;
51602;SDS011;37954;51.980;5.850;2022-10-26T03:59:56;8.63;;;5.35;;
51602;SDS011;37954;51.980;5.850;2022-10-26T04:04:07;7.28;;;5.47;;
51602;SDS011;37954;51.980;5.850;2022-10-26T04:08:19;6.55;;;4.82;;
51602;SDS011;37954;51.980;5.850;2022-10-26T04:12:30;6.80;;;5.38;;
51602;SDS011;37954;51.980;5.850;2022-10-26T04:16:42;6.40;;;5.10;;
51602;SDS011;37954;51.980;5.850;2022-10-26T04:20:53;6.93;;;5.45;;
51602;SDS011;37954;51.980;5.850;2022-10-26T04:25:05;9.55;;;6.00;;
51602;SDS011;37954;51.980;5.850;2022-10-26T04:29:17;7.63;;;6.20;;
51602;SDS011;37954;51.980;5.850;2022-10-26T04:33:29;8.77;;;6.38;;
51602;SDS011;37954;51.980;5.850;2022-10-26T04:37:40;6.70;;;5.55;;
51602;SDS011;37954;51.980;5.850;2022-10-26T04:41:52;11.00;;;7.27;;
51602;SDS011;37954;51.980;5.850;2022-10-26T04:46:04;13.02;;;8.05;;
51602;SDS011;37954;51.980;5.850;2022-10-26T04:50:16;16.67;;;8.55;;
51602;SDS011;37954;51.980;5.850;2022-10-26T04:54:28;13.13;;;7.93;;
51602;SDS011;37954;51.980;5.850;2022-10-26T04:58:39;12.70;;;8.15;;
51602;SDS011;37954;51.980;5.850;2022-10-26T05:02:51;6.53;;;5.50;;
51602;SDS011;37954;51.980;5.850;2022-10-26T05:07:02;10.13;;;5.72;;
51602;SDS011;37954;51.980;5.850;2022-10-26T05:11:14;8.70;;;5.18;;
51602;SDS011;37954;51.980;5.850;2022-10-26T05:15:26;7.63;;;4.85;;
51602;SDS011;37954;51.980;5.850;2022-10-26T05:19:38;5.97;;;5.13;;
51602;SDS011;37954;51.980;5.850;2022-10-26T05:23:50;8.63;;;6.30;;
51602;SDS011;37954;51.980;5.850;2022-10-26T05:28:05;13.43;;;6.68;;
51602;SDS011;37954;51.980;5.850;2022-10-26T05:32:19;7.60;;;6.25;;
51602;SDS011;37954;51.980;5.850;2022-10-26T05:36:31;6.85;;;5.53;;
51602;SDS011;37954;51.980;5.850;2022-10-26T05:40:52;9.52;;;7.05;;
51602;SDS011;37954;51.980;5.850;2022-10-26T05:45:04;7.70;;;6.05;;
51602;SDS011;37954;51.980;5.850;2022-10-26T05:49:16;8.02;;;5.35;;
51602;SDS011;37954;51.980;5.850;2022-10-26T05:53:28;5.68;;;5.07;;
51602;SDS011;37954;51.980;5.850;2022-10-26T05:57:39;12.00;;;5.72;;
51602;SDS011;37954;51.980;5.850;2022-10-26T06:06:25;10.07;;;4.80;;
51602;SDS011;37954;51.980;5.850;2022-10-26T06:10:38;8.32;;;4.78;;
51602;SDS011;37954;51.980;5.850;2022-10-26T06:14:50;8.50;;;4.40;;
51602;SDS011;37954;51.980;5.850;2022-10-26T06:19:05;5.10;;;4.20;;
51602;SDS011;37954;51.980;5.850;2022-10-26T06:28:27;16.15;;;5.72;;
51602;SDS011;37954;51.980;5.850;2022-10-26T06:32:51;10.30;;;6.72;;
51602;SDS011;37954;51.980;5.850;2022-10-26T06:37:21;16.70;;;6.95;;
51602;SDS011;37954;51.980;5.850;2022-10-26T06:41:34;11.35;;;6.72;;
51602;SDS011;37954;51.980;5.850;2022-10-26T06:45:47;8.23;;;5.93;;
51602;SDS011;37954;51.980;5.850;2022-10-26T06:54:46;5.53;;;4.68;;
51602;SDS011;37954;51.980;5.850;2022-10-26T06:59:04;5.93;;;4.57;;
51602;SDS011;37954;51.980;5.850;2022-10-26T07:03:18;6.30;;;4.50;;
51602;SDS011;37954;51.980;5.850;2022-10-26T07:07:30;6.88;;;5.50;;
51602;SDS011;37954;51.980;5.850;2022-10-26T07:11:42;7.03;;;5.68;;
51602;SDS011;37954;51.980;5.850;2022-10-26T07:15:53;10.07;;;4.97;;
51602;SDS011;37954;51.980;5.850;2022-10-26T07:20:05;5.43;;;4.43;;
51602;SDS011;37954;51.980;5.850;2022-10-26T07:24:16;5.63;;;4.55;;
51602;SDS011;37954;51.980;5.850;2022-10-26T07:28:28;6.32;;;2.97;;
51602;SDS011;37954;51.980;5.850;2022-10-26T07:32:39;4.63;;;3.20;;
51602;SDS011;37954;51.980;5.850;2022-10-26T07:36:51;5.90;;;3.08;;
51602;SDS011;37954;51.980;5.850;2022-10-26T07:41:03;4.68;;;3.15;;
51602;SDS011;37954;51.980;5.850;2022-10-26T07:45:17;3.25;;;2.70;;
51602;SDS011;37954;51.980;5.850;2022-10-26T07:49:29;9.20;;;3.03;;
51602;SDS011;37954;51.980;5.850;2022-10-26T07:53:40;3.10;;;2.60;;
51602;SDS011;37954;51.980;5.850;2022-10-26T07:57:53;3.33;;;2.70;;
51602;SDS011;37954;51.980;5.850;2022-10-26T08:02:05;3.63;;;2.60;;
51602;SDS011;37954;51.980;5.850;2022-10-26T08:06:16;7.00;;;2.75;;
51602;SDS011;37954;51.980;5.850;2022-10-26T08:10:28;8.15;;;4.13;;
51602;SDS011;37954;51.980;5.850;2022-10-26T08:14:40;3.13;;;2.80;;
51602;SDS011;37954;51.980;5.850;2022-10-26T08:18:51;3.72;;;2.30;;
51602;SDS011;37954;51.980;5.850;2022-10-26T08:23:03;2.28;;;2.00;;
51602;SDS011;37954;51.980;5.850;2022-10-26T08:27:16;5.63;;;2.47;;
51602;SDS011;37954;51.980;5.850;2022-10-26T08:31:27;3.25;;;2.28;;
51602;SDS011;37954;51.980;5.850;2022-10-26T08:35:40;2.58;;;1.70;;
51602;SDS011;37954;51.980;5.850;2022-10-26T08:39:52;3.05;;;1.77;;
51602;SDS011;37954;51.980;5.850;2022-10-26T08:48:37;2.22;;;1.98;;
51602;SDS011;37954;51.980;5.850;2022-10-26T08:52:53;1.85;;;1.65;;
51602;SDS011;37954;51.980;5.850;2022-10-26T08:57:34;3.78;;;1.48;;
51602;SDS011;37954;51.980;5.850;2022-10-26T09:01:49;1.77;;;1.48;;
51602;SDS011;37954;51.980;5.850;2022-10-26T09:06:04;1.77;;;1.50;;
51602;SDS011;37954;51.980;5.850;2022-10-26T09:10:49;4.18;;;1.83;;
51602;SDS011;37954;51.980;5.850;2022-10-26T09:24:40;2.58;;;1.70;;
51602;SDS011;37954;51.980;5.850;2022-10-26T09:28:52;3.70;;;1.80;;
51602;SDS011;37954;51.980;5.850;2022-10-26T09:33:09;2.45;;;1.92;;
51602;SDS011;37954;51.980;5.850;2022-10-26T09:37:34;2.08;;;1.90;;
51602;SDS011;37954;51.980;5.850;2022-10-26T09:41:53;2.13;;;1.92;;
51602;SDS011;37954;51.980;5.850;2022-10-26T09:46:11;2.15;;;1.95;;
51602;SDS011;37954;51.980;5.850;2022-10-26T09:50:31;3.38;;;1.95;;
51602;SDS011;37954;51.980;5.850;2022-10-26T09:54:45;2.38;;;1.90;;
51602;SDS011;37954;51.980;5.850;2022-10-26T09:58:57;2.80;;;2.35;;
51602;SDS011;37954;51.980;5.850;2022-10-26T10:07:38;2.50;;;2.30;;
51602;SDS011;37954;51.980;5.850;2022-10-26T10:11:51;2.55;;;2.35;;
51602;SDS011;37954;51.980;5.850;2022-10-26T10:20:32;1.95;;;1.83;;
51602;SDS011;37954;51.980;5.850;2022-10-26T10:24:54;5.05;;;2.30;;
51602;SDS011;37954;51.980;5.850;2022-10-26T10:29:08;2.08;;;1.80;;
51602;SDS011;37954;51.980;5.850;2022-10-26T10:37:45;2.63;;;2.40;;
51602;SDS011;37954;51.980;5.850;2022-10-26T10:41:57;3.45;;;2.40;;
51602;SDS011;37954;51.980;5.850;2022-10-26T10:46:08;3.20;;;2.25;;
51602;SDS011;37954;51.980;5.850;2022-10-26T10:50:20;2.53;;;2.10;;
51602;SDS011;37954;51.980;5.850;2022-10-26T10:54:32;3.22;;;2.40;;
51602;SDS011;37954;51.980;5.850;2022-10-26T11:03:38;2.63;;;2.20;;
51602;SDS011;37954;51.980;5.850;2022-10-26T11:08:07;6.95;;;2.40;;
51602;SDS011;37954;51.980;5.850;2022-10-26T11:12:27;3.58;;;2.10;;
51602;SDS011;37954;51.980;5.850;2022-10-26T11:16:42;8.98;;;2.20;;
51602;SDS011;37954;51.980;5.850;2022-10-26T11:25:49;3.17;;;2.10;;
51602;SDS011;37954;51.980;5.850;2022-10-26T11:30:08;2.05;;;1.83;;
51602;SDS011;37954;51.980;5.850;2022-10-26T11:34:39;4.13;;;2.20;;
51602;SDS011;37954;51.980;5.850;2022-10-26T11:39:00;3.83;;;2.55;;
51602;SDS011;37954;51.980;5.850;2022-10-26T11:47:58;1.95;;;1.75;;
51602;SDS011;37954;51.980;5.850;2022-10-26T11:52:18;4.93;;;2.28;;
51602;SDS011;37954;51.980;5.850;2022-10-26T11:56:40;2.65;;;1.83;;
51602;SDS011;37954;51.980;5.850;2022-10-26T12:00:57;2.72;;;2.08;;
51602;SDS011;37954;51.980;5.850;2022-10-26T12:09:32;5.40;;;2.30;;
51602;SDS011;37954;51.980;5.850;2022-10-26T12:13:52;3.03;;;2.13;;
51602;SDS011;37954;51.980;5.850;2022-10-26T12:18:10;3.08;;;1.90;;
51602;SDS011;37954;51.980;5.850;2022-10-26T12:22:25;2.38;;;2.08;;
51602;SDS011;37954;51.980;5.850;2022-10-26T12:26:47;1.98;;;1.88;;
51602;SDS011;37954;51.980;5.850;2022-10-26T12:35:42;4.95;;;2.30;;
51602;SDS011;37954;51.980;5.850;2022-10-26T12:39:55;2.97;;;2.38;;
51602;SDS011;37954;51.980;5.850;2022-10-26T12:48:55;5.72;;;2.60;;
51602;SDS011;37954;51.980;5.850;2022-10-26T12:53:10;4.22;;;2.38;;
51602;SDS011;37954;51.980;5.850;2022-10-26T12:57:30;5.25;;;2.33;;
51602;SDS011;37954;51.980;5.850;2022-10-26T13:01:58;2.85;;;2.55;;
51602;SDS011;37954;51.980;5.850;2022-10-26T13:15:53;2.92;;;2.25;;
51602;SDS011;37954;51.980;5.850;2022-10-26T13:20:13;3.55;;;2.70;;
51602;SDS011;37954;51.980;5.850;2022-10-26T13:24:29;3.75;;;2.55;;
51602;SDS011;37954;51.980;5.850;2022-10-26T13:28:50;6.28;;;2.72;;
51602;SDS011;37954;51.980;5.850;2022-10-26T13:33:01;4.18;;;2.78;;
51602;SDS011;37954;51.980;5.850;2022-10-26T13:37:22;4.45;;;3.03;;
51602;SDS011;37954;51.980;5.850;2022-10-26T13:41:37;2.85;;;2.58;;
51602;SDS011;37954;51.980;5.850;2022-10-26T13:45:53;5.45;;;2.95;;
51602;SDS011;37954;51.980;5.850;2022-10-26T13:50:13;4.03;;;2.60;;
51602;SDS011;37954;51.980;5.850;2022-10-26T13:59:07;3.58;;;2.90;;
51602;SDS011;37954;51.980;5.850;2022-10-26T14:03:20;3.58;;;2.78;;
51602;SDS011;37954;51.980;5.850;2022-10-26T14:07:38;3.38;;;2.65;;
51602;SDS011;37954;51.980;5.850;2022-10-26T14:11:55;2.85;;;2.53;;
51602;SDS011;37954;51.980;5.850;2022-10-26T14:16:11;3.13;;;2.80;;
51602;SDS011;37954;51.980;5.850;2022-10-26T14:20:28;3.97;;;2.40;;
51602;SDS011;37954;51.980;5.850;2022-10-26T14:24:48;3.08;;;2.45;;
51602;SDS011;37954;51.980;5.850;2022-10-26T14:29:01;3.00;;;2.70;;
51602;SDS011;37954;51.980;5.850;2022-10-26T14:33:22;3.53;;;2.33;;
51602;SDS011;37954;51.980;5.850;2022-10-26T14:37:57;3.22;;;2.33;;
51602;SDS011;37954;51.980;5.850;2022-10-26T14:42:14;3.60;;;2.17;;
51602;SDS011;37954;51.980;5.850;2022-10-26T14:46:39;2.40;;;2.20;;
51602;SDS011;37954;51.980;5.850;2022-10-26T14:50:57;2.22;;;2.03;;
51602;SDS011;37954;51.980;5.850;2022-10-26T14:55:21;2.85;;;1.98;;
51602;SDS011;37954;51.980;5.850;2022-10-26T14:59:33;2.58;;;2.08;;
51602;SDS011;37954;51.980;5.850;2022-10-26T15:03:45;1.80;;;1.70;;
51602;SDS011;37954;51.980;5.850;2022-10-26T15:07:58;3.22;;;2.22;;
51602;SDS011;37954;51.980;5.850;2022-10-26T15:16:49;2.28;;;2.08;;
51602;SDS011;37954;51.980;5.850;2022-10-26T15:21:14;1.80;;;1.50;;
51602;SDS011;37954;51.980;5.850;2022-10-26T15:25:33;2.15;;;1.92;;
51602;SDS011;37954;51.980;5.850;2022-10-26T15:29:45;1.92;;;1.58;;
51602;SDS011;37954;51.980;5.850;2022-10-26T15:38:11;1.90;;;1.50;;
51602;SDS011;37954;51.980;5.850;2022-10-26T15:42:22;1.70;;;1.40;;
51602;SDS011;37954;51.980;5.850;2022-10-26T15:46:34;2.80;;;1.67;;
51602;SDS011;37954;51.980;5.850;2022-10-26T15:50:48;4.63;;;2.05;;
51602;SDS011;37954;51.980;5.850;2022-10-26T15:55:00;2.13;;;1.90;;
51602;SDS011;37954;51.980;5.850;2022-10-26T15:59:18;1.60;;;1.50;;
51602;SDS011;37954;51.980;5.850;2022-10-26T16:03:29;3.17;;;1.58;;
51602;SDS011;37954;51.980;5.850;2022-10-26T16:07:41;1.83;;;1.58;;
51602;SDS011;37954;51.980;5.850;2022-10-26T16:11:55;2.03;;;1.50;;
51602;SDS011;37954;51.980;5.850;2022-10-26T16:16:11;3.50;;;1.60;;
51602;SDS011;37954;51.980;5.850;2022-10-26T16:20:24;3.58;;;1.70;;
51602;SDS011;37954;51.980;5.850;2022-10-26T16:24:37;1.95;;;1.70;;
51602;SDS011;37954;51.980;5.850;2022-10-26T16:28:49;2.42;;;1.88;;
51602;SDS011;37954;51.980;5.850;2022-10-26T16:33:01;4.03;;;2.30;;
51602;SDS011;37954;51.980;5.850;2022-10-26T16:37:13;2.70;;;2.40;;
51602;SDS011;37954;51.980;5.850;2022-10-26T16:41:25;3.28;;;2.80;;
51602;SDS011;37954;51.980;5.850;2022-10-26T16:45:37;3.13;;;2.35;;
51602;SDS011;37954;51.980;5.850;2022-10-26T16:49:49;5.20;;;2.50;;
51602;SDS011;37954;51.980;5.850;2022-10-26T16:54:01;2.67;;;2.45;;
51602;SDS011;37954;51.980;5.850;2022-10-26T16:58:12;3.30;;;2.00;;
51602;SDS011;37954;51.980;5.850;2022-10-26T17:02:24;2.33;;;1.80;;
51602;SDS011;37954;51.980;5.850;2022-10-26T17:06:36;3.13;;;2.10;;
51602;SDS011;37954;51.980;5.850;2022-10-26T17:10:47;5.25;;;2.72;;
51602;SDS011;37954;51.980;5.850;2022-10-26T17:14:59;4.47;;;2.72;;
51602;SDS011;37954;51.980;5.850;2022-10-26T17:19:11;3.25;;;2.60;;
51602;SDS011;37954;51.980;5.850;2022-10-26T17:23:23;2.78;;;2.25;;
51602;SDS011;37954;51.980;5.850;2022-10-26T17:27:35;2.25;;;1.90;;
51602;SDS011;37954;51.980;5.850;2022-10-26T17:31:46;3.67;;;1.80;;
51602;SDS011;37954;51.980;5.850;2022-10-26T17:35:58;4.15;;;2.38;;
51602;SDS011;37954;51.980;5.850;2022-10-26T17:40:09;3.05;;;2.50;;
51602;SDS011;37954;51.980;5.850;2022-10-26T17:44:21;3.78;;;2.95;;
51602;SDS011;37954;51.980;5.850;2022-10-26T17:48:33;6.25;;;3.58;;
51602;SDS011;37954;51.980;5.850;2022-10-26T17:52:44;3.95;;;3.15;;
51602;SDS011;37954;51.980;5.850;2022-10-26T17:56:56;5.18;;;3.55;;
51602;SDS011;37954;51.980;5.850;2022-10-26T18:01:08;6.32;;;3.17;;
51602;SDS011;37954;51.980;5.850;2022-10-26T18:05:22;7.00;;;3.05;;
51602;SDS011;37954;51.980;5.850;2022-10-26T18:09:33;3.97;;;3.00;;
51602;SDS011;37954;51.980;5.850;2022-10-26T18:13:45;3.95;;;3.15;;
51602;SDS011;37954;51.980;5.850;2022-10-26T18:17:57;4.70;;;2.60;;
51602;SDS011;37954;51.980;5.850;2022-10-26T18:22:11;3.60;;;2.67;;
51602;SDS011;37954;51.980;5.850;2022-10-26T18:26:23;3.10;;;2.63;;
51602;SDS011;37954;51.980;5.850;2022-10-26T18:30:36;2.70;;;2.30;;
51602;SDS011;37954;51.980;5.850;2022-10-26T18:34:48;4.50;;;2.58;;
51602;SDS011;37954;51.980;5.850;2022-10-26T18:38:59;2.90;;;2.60;;
51602;SDS011;37954;51.980;5.850;2022-10-26T18:43:11;4.35;;;3.30;;
51602;SDS011;37954;51.980;5.850;2022-10-26T18:47:23;6.03;;;4.78;;
51602;SDS011;37954;51.980;5.850;2022-10-26T18:51:35;4.85;;;4.15;;
51602;SDS011;37954;51.980;5.850;2022-10-26T18:55:46;3.85;;;3.33;;
51602;SDS011;37954;51.980;5.850;2022-10-26T18:59:58;6.03;;;4.00;;
51602;SDS011;37954;51.980;5.850;2022-10-26T19:04:09;4.30;;;3.30;;
51602;SDS011;37954;51.980;5.850;2022-10-26T19:08:21;6.88;;;3.03;;
51602;SDS011;37954;51.980;5.850;2022-10-26T19:12:38;8.13;;;3.70;;
51602;SDS011;37954;51.980;5.850;2022-10-26T19:16:50;5.30;;;3.67;;
51602;SDS011;37954;51.980;5.850;2022-10-26T19:21:04;4.72;;;3.40;;
51602;SDS011;37954;51.980;5.850;2022-10-26T19:25:18;4.55;;;3.30;;
51602;SDS011;37954;51.980;5.850;2022-10-26T19:29:30;3.75;;;3.03;;
51602;SDS011;37954;51.980;5.850;2022-10-26T19:33:41;3.17;;;2.67;;
51602;SDS011;37954;51.980;5.850;2022-10-26T19:37:53;6.75;;;3.15;;
51602;SDS011;37954;51.980;5.850;2022-10-26T19:42:05;6.80;;;2.80;;
51602;SDS011;37954;51.980;5.850;2022-10-26T19:46:18;2.75;;;2.45;;
51602;SDS011;37954;51.980;5.850;2022-10-26T19:50:33;3.33;;;2.60;;
51602;SDS011;37954;51.980;5.850;2022-10-26T19:54:45;2.35;;;2.15;;
51602;SDS011;37954;51.980;5.850;2022-10-26T19:58:57;3.83;;;2.92;;
51602;SDS011;37954;51.980;5.850;2022-10-26T20:03:09;5.43;;;2.85;;
51602;SDS011;37954;51.980;5.850;2022-10-26T20:07:21;3.75;;;2.38;;
51602;SDS011;37954;51.980;5.850;2022-10-26T20:11:33;4.72;;;2.67;;
51602;SDS011;37954;51.980;5.850;2022-10-26T20:15:47;5.57;;;2.47;;
51602;SDS011;37954;51.980;5.850;2022-10-26T20:20:00;2.83;;;2.33;;
51602;SDS011;37954;51.980;5.850;2022-10-26T20:24:12;3.75;;;2.60;;
51602;SDS011;37954;51.980;5.850;2022-10-26T20:28:24;4.80;;;3.22;;
51602;SDS011;37954;51.980;5.850;2022-10-26T20:32:36;5.53;;;3.03;;
51602;SDS011;37954;51.980;5.850;2022-10-26T20:36:47;6.28;;;2.40;;
51602;SDS011;37954;51.980;5.850;2022-10-26T20:40:59;2.80;;;2.45;;
51602;SDS011;37954;51.980;5.850;2022-10-26T20:49:34;3.45;;;3.00;;
51602;SDS011;37954;51.980;5.850;2022-10-26T20:53:50;3.08;;;2.38;;
51602;SDS011;37954;51.980;5.850;2022-10-26T20:58:12;5.65;;;3.15;;
51602;SDS011;37954;51.980;5.850;2022-10-26T21:02:29;5.40;;;3.17;;
51602;SDS011;37954;51.980;5.850;2022-10-26T21:06:41;5.95;;;2.80;;
51602;SDS011;37954;51.980;5.850;2022-10-26T21:10:53;3.22;;;2.92;;
51602;SDS011;37954;51.980;5.850;2022-10-26T21:15:04;5.03;;;3.55;;
51602;SDS011;37954;51.980;5.850;2022-10-26T21:19:16;4.93;;;3.47;;
51602;SDS011;37954;51.980;5.850;2022-10-26T21:23:30;5.40;;;3.33;;
51602;SDS011;37954;51.980;5.850;2022-10-26T21:27:45;4.68;;;3.95;;
51602;SDS011;37954;51.980;5.850;2022-10-26T21:31:57;5.40;;;3.85;;
51602;SDS011;37954;51.980;5.850;2022-10-26T21:36:09;4.97;;;4.05;;
51602;SDS011;37954;51.980;5.850;2022-10-26T21:40:22;4.38;;;3.60;;
51602;SDS011;37954;51.980;5.850;2022-10-26T21:44:34;5.20;;;4.45;;
51602;SDS011;37954;51.980;5.850;2022-10-26T21:48:52;6.68;;;4.40;;
51602;SDS011;37954;51.980;5.850;2022-10-26T21:53:04;10.68;;;4.32;;
51602;SDS011;37954;51.980;5.850;2022-10-26T21:57:16;4.95;;;4.00;;
51602;SDS011;37954;51.980;5.850;2022-10-26T22:01:27;4.63;;;3.97;;
51602;SDS011;37954;51.980;5.850;2022-10-26T22:05:39;5.03;;;4.18;;
51602;SDS011;37954;51.980;5.850;2022-10-26T22:09:56;8.68;;;4.35;;
51602;SDS011;37954;51.980;5.850;2022-10-26T22:14:21;4.93;;;3.70;;
51602;SDS011;37954;51.980;5.850;2022-10-26T22:18:33;5.93;;;4.22;;
51602;SDS011;37954;51.980;5.850;2022-10-26T22:22:46;7.93;;;4.18;;
51602;SDS011;37954;51.980;5.850;2022-10-26T22:26:57;10.23;;;4.00;;
51602;SDS011;37954;51.980;5.850;2022-10-26T22:31:14;4.28;;;3.42;;
51602;SDS011;37954;51.980;5.850;2022-10-26T22:35:28;8.05;;;4.05;;
51602;SDS011;37954;51.980;5.850;2022-10-26T22:39:40;9.52;;;3.97;;
51602;SDS011;37954;51.980;5.850;2022-10-26T22:43:52;3.65;;;3.25;;
51602;SDS011;37954;51.980;5.850;2022-10-26T22:48:03;5.82;;;3.45;;
51602;SDS011;37954;51.980;5.850;2022-10-26T22:52:15;5.93;;;3.60;;
51602;SDS011;37954;51.980;5.850;2022-10-26T22:56:27;6.82;;;3.70;;
51602;SDS011;37954;51.980;5.850;2022-10-26T23:00:40;5.38;;;3.63;;
51602;SDS011;37954;51.980;5.850;2022-10-26T23:04:51;7.78;;;3.65;;
51602;SDS011;37954;51.980;5.850;2022-10-26T23:09:03;4.68;;;3.50;;
51602;SDS011;37954;51.980;5.850;2022-10-26T23:13:15;7.68;;;3.90;;
51602;SDS011;37954;51.980;5.850;2022-10-26T23:17:27;6.40;;;3.80;;
51602;SDS011;37954;51.980;5.850;2022-10-26T23:21:38;3.30;;;3.00;;
51602;SDS011;37954;51.980;5.850;2022-10-26T23:25:50;7.88;;;3.97;;
51602;SDS011;37954;51.980;5.850;2022-10-26T23:30:02;4.32;;;3.72;;
51602;SDS011;37954;51.980;5.850;2022-10-26T23:34:13;3.85;;;3.30;;
51602;SDS011;37954;51.980;5.850;2022-10-26T23:38:25;4.55;;;3.53;;
51602;SDS011;37954;51.980;5.850;2022-10-26T23:42:37;5.68;;;4.05;;
51602;SDS011;37954;51.980;5.850;2022-10-26T23:46:49;5.05;;;3.55;;
51602;SDS011;37954;51.980;5.850;2022-10-26T23:51:00;6.40;;;3.78;;
51602;SDS011;37954;51.980;5.850;2022-10-26T23:55:12;4.65;;;3.03;;
51602;SDS011;37954;51.980;5.850;2022-10-26T23:59:24;3.83;;;3.45;;
